Time;durP1;ratioP1;P1;durP2;ratioP2;P2;SDS_P1;SDS_P2;PMS_P1;PMS_P2;Temp;Humidity;BMP_temperature;BMP_pressure;BME280_temperature;BME280_humidity;BME280_pressure;Samples;Min_cycle;Max_cycle;Signal;HPM_P1;HPM_P2
2024/03/14 00:02:19;;;;;;;4.50;2.90;;;;;;;8.08;100.00;97438.84;5023659;28;20409;-81
2024/03/14 00:04:46;;;;;;;5.10;2.70;;;;;;;8.05;100.00;97436.69;5024313;28;20403;-82
2024/03/14 00:07:14;;;;;;;3.80;2.50;;;;;;;8.02;100.00;97439.78;5009129;28;20411;-82
2024/03/14 00:09:40;;;;;;;5.68;2.92;;;;;;;7.97;100.00;97437.84;5025731;28;20401;-81
2024/03/14 00:12:07;;;;;;;4.50;2.97;;;;;;;7.96;100.00;97438.09;5018796;28;20412;-81
2024/03/14 00:14:35;;;;;;;9.40;4.20;;;;;;;7.89;100.00;97437.44;5028177;28;20937;-82
2024/03/14 00:17:01;;;;;;;8.52;4.15;;;;;;;7.82;100.00;97432.25;5027084;28;20469;-82
2024/03/14 00:19:27;;;;;;;7.63;3.70;;;;;;;7.78;100.00;97436.41;5026891;28;20930;-81
2024/03/14 00:21:54;;;;;;;5.53;3.30;;;;;;;7.73;100.00;97423.94;5026480;28;20403;-81
2024/03/14 00:24:20;;;;;;;7.15;3.75;;;;;;;7.66;100.00;97431.16;5027154;28;20421;-81
2024/03/14 00:26:47;;;;;;;5.53;3.22;;;;;;;7.57;100.00;97432.53;5027207;28;20414;-81
2024/03/14 00:29:13;;;;;;;4.15;2.90;;;;;;;7.47;100.00;97432.31;5026745;28;20403;-81
2024/03/14 00:31:40;;;;;;;6.88;3.70;;;;;;;7.37;100.00;97429.44;5026286;28;20430;-81
2024/03/14 00:34:09;;;;;;;9.48;4.38;;;;;;;7.27;100.00;97432.66;5026705;28;20425;-81
2024/03/14 00:36:39;;;;;;;10.23;4.90;;;;;;;7.17;100.00;97431.59;5027446;28;20449;-81
2024/03/14 00:39:08;;;;;;;11.15;4.47;;;;;;;7.12;100.00;97436.75;5028953;28;20438;-82
2024/03/14 00:41:34;;;;;;;13.90;5.57;;;;;;;7.11;100.00;97435.97;5035718;28;20407;-83
2024/03/14 00:44:03;;;;;;;11.77;5.97;;;;;;;7.10;100.00;97426.47;5037755;28;20399;-81
2024/03/14 00:46:31;;;;;;;19.05;6.43;;;;;;;7.04;100.00;97432.63;5028831;28;20409;-81
2024/03/14 00:48:57;;;;;;;15.75;5.72;;;;;;;6.99;100.00;97427.25;5027787;28;20887;-82
2024/03/14 00:51:25;;;;;;;19.98;7.07;;;;;;;7.02;100.00;97434.69;5029647;28;20412;-81
2024/03/14 00:53:52;;;;;;;16.23;7.20;;;;;;;7.00;100.00;97426.22;5026884;28;20492;-82
2024/03/14 00:56:18;;;;;;;17.00;7.60;;;;;;;7.00;100.00;97432.28;4999886;28;20429;-81
2024/03/14 00:58:45;;;;;;;24.83;7.50;;;;;;;6.98;100.00;97434.34;5019416;28;20432;-82
2024/03/14 01:01:11;;;;;;;19.35;7.63;;;;;;;6.98;100.00;97423.81;5022405;28;20421;-81
2024/03/14 01:03:37;;;;;;;23.80;8.50;;;;;;;6.91;100.00;97423.13;5026282;28;20896;-81
2024/03/14 01:06:04;;;;;;;21.05;8.00;;;;;;;6.92;100.00;97418.63;5026396;28;20903;-82
2024/03/14 01:08:31;;;;;;;25.00;8.05;;;;;;;6.86;100.00;97415.09;5028407;28;20407;-81
2024/03/14 01:10:57;;;;;;;25.38;9.27;;;;;;;6.84;100.00;97417.13;5007459;28;20405;-81
2024/03/14 01:13:25;;;;;;;27.52;9.13;;;;;;;6.88;100.00;97420.13;5020216;28;20412;-81
2024/03/14 01:15:51;;;;;;;27.00;9.33;;;;;;;6.87;100.00;97402.75;5027003;28;20419;-80
2024/03/14 01:18:18;;;;;;;30.15;9.57;;;;;;;6.87;100.00;97408.00;5027283;28;20403;-81
2024/03/14 01:20:45;;;;;;;24.73;9.48;;;;;;;6.91;100.00;97403.91;5028993;28;20419;-81
2024/03/14 01:23:11;;;;;;;28.37;9.73;;;;;;;6.90;100.00;97408.38;5010701;28;20973;-82
2024/03/14 01:25:38;;;;;;;25.38;9.07;;;;;;;6.94;100.00;97406.06;5026264;28;20411;-79
2024/03/14 01:28:04;;;;;;;28.50;9.63;;;;;;;6.99;100.00;97408.84;5022371;28;20404;-81
2024/03/14 01:30:31;;;;;;;34.70;10.35;;;;;;;7.02;100.00;97392.56;5010996;28;20396;-81
2024/03/14 01:32:57;;;;;;;23.83;8.75;;;;;;;7.03;100.00;97394.19;5016083;28;20399;-81
2024/03/14 01:35:24;;;;;;;28.60;9.60;;;;;;;7.06;100.00;97390.31;5024153;28;20411;-81
2024/03/14 01:37:50;;;;;;;28.85;10.05;;;;;;;7.06;100.00;97391.09;5024351;28;20400;-81
2024/03/14 01:40:17;;;;;;;21.95;8.40;;;;;;;7.08;100.00;97396.13;5026854;28;20415;-81
2024/03/14 01:42:46;;;;;;;20.38;7.00;;;;;;;7.09;100.00;97385.38;5026060;28;20402;-81
2024/03/14 01:45:15;;;;;;;17.63;6.88;;;;;;;7.10;100.00;97386.16;5028050;28;20426;-81
2024/03/14 01:47:42;;;;;;;14.15;5.88;;;;;;;7.09;100.00;97382.75;5029344;28;20422;-80
2024/03/14 01:50:11;;;;;;;13.45;5.60;;;;;;;7.11;100.00;97385.16;5027875;28;20410;-80
2024/03/14 01:52:37;;;;;;;18.13;6.32;;;;;;;7.09;100.00;97379.31;5031483;28;20471;-77
2024/03/14 01:55:04;;;;;;;14.73;6.28;;;;;;;7.08;100.00;97378.50;5022486;28;20492;-81
2024/03/14 01:57:30;;;;;;;21.30;7.10;;;;;;;7.05;100.00;97375.53;5004603;28;20963;-80
2024/03/14 01:59:58;;;;;;;19.15;6.80;;;;;;;7.01;100.00;97372.53;5019545;28;20489;-80
2024/03/14 02:02:24;;;;;;;19.57;6.47;;;;;;;6.96;100.00;97364.53;5018601;28;20403;-81
2024/03/14 02:04:52;;;;;;;14.18;5.82;;;;;;;6.90;100.00;97368.91;5019195;28;20403;-82
2024/03/14 02:07:18;;;;;;;13.00;5.22;;;;;;;6.86;100.00;97356.41;5017569;28;20749;-82
2024/03/14 02:09:44;;;;;;;21.13;7.50;;;;;;;6.83;100.00;97357.69;5022499;28;20403;-80
2024/03/14 02:12:11;;;;;;;14.68;5.90;;;;;;;6.80;100.00;97354.69;5019719;28;20404;-80
2024/03/14 02:14:37;;;;;;;12.20;5.28;;;;;;;6.75;100.00;97354.56;5020360;28;20403;-80
2024/03/14 02:17:04;;;;;;;12.82;5.47;;;;;;;6.71;100.00;97359.47;5022818;28;20426;-81
2024/03/14 02:19:30;;;;;;;10.63;4.40;;;;;;;6.68;100.00;97359.94;5014241;28;20400;-81
2024/03/14 02:21:58;;;;;;;8.07;4.03;;;;;;;6.66;100.00;97356.75;5013712;28;20407;-81
2024/03/14 02:24:25;;;;;;;8.07;4.43;;;;;;;6.63;100.00;97359.81;5006613;28;20438;-82
2024/03/14 02:26:52;;;;;;;21.20;6.75;;;;;;;6.63;100.00;97359.81;5021753;28;20403;-80
2024/03/14 02:29:18;;;;;;;26.13;7.90;;;;;;;6.61;100.00;97354.75;5006038;28;20403;-82
2024/03/14 02:31:44;;;;;;;21.25;7.60;;;;;;;6.60;100.00;97357.66;5022039;28;20407;-82
2024/03/14 02:34:11;;;;;;;16.80;6.85;;;;;;;6.56;100.00;97352.03;5010537;28;20957;-81
2024/03/14 02:36:37;;;;;;;15.82;6.50;;;;;;;6.54;100.00;97348.81;5021553;28;20427;-80
2024/03/14 02:39:07;;;;;;;15.48;6.40;;;;;;;6.51;100.00;97351.09;5021370;28;20395;-80
2024/03/14 02:41:34;;;;;;;19.75;6.82;;;;;;;6.48;100.00;97347.09;5024931;28;20431;-80
2024/03/14 02:44:00;;;;;;;12.97;6.17;;;;;;;6.47;100.00;97347.31;5021028;28;20397;-81
2024/03/14 02:46:26;;;;;;;14.35;5.82;;;;;;;6.43;100.00;97346.16;5020494;28;20859;-80
2024/03/14 02:48:53;;;;;;;13.07;5.28;;;;;;;6.38;100.00;97348.69;5024077;28;20405;-80
2024/03/14 02:51:19;;;;;;;9.73;4.60;;;;;;;6.34;100.00;97352.78;5030042;28;20400;-81
2024/03/14 02:53:46;;;;;;;9.05;4.20;;;;;;;6.33;100.00;97345.91;5022782;28;20764;-81
2024/03/14 02:56:13;;;;;;;16.90;6.18;;;;;;;6.26;100.00;97348.63;5023746;28;20423;-80
2024/03/14 02:58:39;;;;;;;18.58;6.97;;;;;;;6.21;100.00;97345.88;5023677;28;20399;-80
2024/03/14 03:01:06;;;;;;;24.98;8.50;;;;;;;6.16;100.00;97341.28;5019702;28;20685;-80
2024/03/14 03:03:32;;;;;;;23.67;8.52;;;;;;;6.14;100.00;97339.91;5028232;28;20407;-81
2024/03/14 03:05:58;;;;;;;31.17;9.77;;;;;;;6.12;100.00;97336.72;5022335;28;20416;-81
2024/03/14 03:08:25;;;;;;;30.13;9.88;;;;;;;6.09;100.00;97332.69;5012103;28;20398;-80
2024/03/14 03:10:51;;;;;;;24.40;8.48;;;;;;;6.06;100.00;97337.59;5023300;28;20414;-80
2024/03/14 03:13:20;;;;;;;26.27;8.70;;;;;;;6.04;100.00;97340.44;5022951;28;20430;-78
2024/03/14 03:15:46;;;;;;;19.80;7.85;;;;;;;5.99;100.00;97335.06;5015820;28;20943;-80
2024/03/14 03:18:13;;;;;;;20.95;7.55;;;;;;;5.96;100.00;97340.75;5023468;28;20406;-80
2024/03/14 03:20:39;;;;;;;17.08;6.95;;;;;;;5.95;100.00;97340.97;5022483;28;20445;-80
2024/03/14 03:23:09;;;;;;;17.05;7.10;;;;;;;5.91;100.00;97343.25;5020177;28;20432;-81
2024/03/14 03:25:35;;;;;;;22.48;7.75;;;;;;;5.89;100.00;97339.25;5012327;28;20414;-80
2024/03/14 03:28:08;;;;;;;32.15;9.75;;;;;;;5.90;100.00;97330.34;5023057;28;20399;-80
2024/03/14 03:30:35;;;;;;;36.07;11.70;;;;;;;5.94;100.00;97334.16;5024151;28;20437;-80
2024/03/14 03:33:01;;;;;;;47.70;12.90;;;;;;;5.98;100.00;97324.78;5023553;28;20395;-80
2024/03/14 03:35:27;;;;;;;48.63;14.75;;;;;;;6.01;100.00;97327.78;5023917;28;20411;-79
2024/03/14 03:37:57;;;;;;;52.00;15.13;;;;;;;6.04;100.00;97326.50;5023616;28;20442;-80
2024/03/14 03:40:28;;;;;;;43.45;13.38;;;;;;;6.06;100.00;97327.91;5028302;28;20437;-80
2024/03/14 03:42:55;;;;;;;44.35;13.15;;;;;;;6.08;100.00;97331.13;5024821;28;20395;-80
2024/03/14 03:45:21;;;;;;;51.65;15.32;;;;;;;6.12;100.00;97334.06;5020897;28;20393;-81
2024/03/14 03:47:47;;;;;;;58.08;15.70;;;;;;;6.20;100.00;97333.75;5009380;28;20404;-80
2024/03/14 03:50:14;;;;;;;45.50;13.85;;;;;;;6.20;100.00;97329.31;5025772;28;20399;-81
2024/03/14 03:52:40;;;;;;;34.50;10.63;;;;;;;6.18;100.00;97327.91;5008322;28;20411;-81
2024/03/14 03:55:07;;;;;;;30.10;9.38;;;;;;;6.17;100.00;97332.38;5024023;28;20451;-82
2024/03/14 03:57:33;;;;;;;39.83;12.25;;;;;;;6.17;100.00;97336.81;5024266;28;20449;-80
2024/03/14 04:00:00;;;;;;;39.85;11.57;;;;;;;6.16;100.00;97337.88;5039561;28;20919;-82
2024/03/14 04:02:29;;;;;;;31.63;10.10;;;;;;;6.10;100.00;97330.88;5031957;28;20933;-84
2024/03/14 04:04:57;;;;;;;34.47;9.65;;;;;;;6.08;100.00;97333.75;5030892;28;20410;-83
2024/03/14 04:07:26;;;;;;;22.38;7.85;;;;;;;6.06;100.00;97333.16;5028867;28;20402;-83
2024/03/14 04:09:52;;;;;;;19.88;6.70;;;;;;;6.04;100.00;97332.56;5042685;28;20434;-86
2024/03/14 04:12:18;;;;;;;26.90;8.10;;;;;;;6.04;100.00;97335.19;5033682;28;20403;-81
2024/03/14 04:14:45;;;;;;;25.25;8.25;;;;;;;6.04;100.00;97324.69;5023833;28;20788;-83
2024/03/14 04:17:15;;;;;;;38.55;11.43;;;;;;;6.05;100.00;97330.75;5024120;28;20780;-81
2024/03/14 04:19:41;;;;;;;38.20;11.77;;;;;;;6.04;100.00;97327.31;5019690;28;20437;-82
2024/03/14 04:22:07;;;;;;;31.75;9.75;;;;;;;6.04;100.00;97329.94;5006123;28;20409;-81
2024/03/14 04:24:34;;;;;;;32.38;10.63;;;;;;;6.04;100.00;97332.56;5021350;28;20397;-79
2024/03/14 04:27:04;;;;;;;23.65;7.95;;;;;;;6.03;100.00;97333.59;5020668;28;20412;-81
2024/03/14 04:29:30;;;;;;;34.00;9.82;;;;;;;6.03;100.00;97333.59;5024948;28;20438;-81
2024/03/14 04:31:57;;;;;;;26.45;8.40;;;;;;;6.03;100.00;97330.16;5023562;28;20400;-82
2024/03/14 04:34:23;;;;;;;25.55;7.93;;;;;;;6.01;100.00;97330.41;5023581;28;20888;-81
2024/03/14 04:36:52;;;;;;;22.88;7.10;;;;;;;6.00;100.00;97328.78;5023421;28;20426;-82
2024/03/14 04:39:23;;;;;;;32.53;9.70;;;;;;;6.02;100.00;97326.72;5007497;28;20419;-81
2024/03/14 04:41:52;;;;;;;49.95;13.68;;;;;;;6.11;100.00;97332.47;5024090;28;20406;-82
2024/03/14 04:44:19;;;;;;;49.45;13.00;;;;;;;6.09;100.00;97324.81;5023432;28;20902;-80
2024/03/14 04:46:45;;;;;;;42.55;12.00;;;;;;;6.10;100.00;97328.25;5023272;28;20449;-81
2024/03/14 04:49:12;;;;;;;39.67;11.35;;;;;;;6.10;100.00;97325.63;5019567;28;20412;-81
2024/03/14 04:51:39;;;;;;;36.53;10.57;;;;;;;6.09;100.00;97330.06;5016037;28;20904;-81
2024/03/14 04:54:05;;;;;;;59.95;13.93;;;;;;;6.10;100.00;97315.09;5007767;28;20776;-80
2024/03/14 04:56:33;;;;;;;57.35;15.40;;;;;;;6.05;100.00;97314.97;5016398;28;20422;-82
2024/03/14 04:59:01;;;;;;;67.43;16.05;;;;;;;6.01;100.00;97309.38;5015412;28;20496;-82
2024/03/14 05:01:29;;;;;;;83.55;16.23;;;;;;;6.04;100.00;97310.75;5017929;28;20449;-80
2024/03/14 05:03:58;;;;;;;59.13;15.52;;;;;;;6.03;100.00;97317.03;5010723;28;20403;-82
2024/03/14 05:06:25;;;;;;;74.05;17.20;;;;;;;5.96;100.00;97314.50;5024014;28;20408;-83
2024/03/14 05:08:51;;;;;;;80.10;17.55;;;;;;;5.97;100.00;97307.41;5013365;28;20554;-80
2024/03/14 05:11:18;;;;;;;72.65;17.15;;;;;;;5.87;100.00;97305.28;5014635;28;20892;-80
2024/03/14 05:13:44;;;;;;;74.65;16.88;;;;;;;5.90;100.00;97304.88;5010021;28;20436;-80
2024/03/14 05:16:11;;;;;;;88.47;17.83;;;;;;;5.89;100.00;97307.72;5023892;28;20431;-80
2024/03/14 05:18:37;;;;;;;85.17;17.37;;;;;;;5.89;100.00;97308.53;5005799;28;20444;-81
2024/03/14 05:21:04;;;;;;;94.00;19.60;;;;;;;5.82;100.00;97311.22;5039234;28;20411;-81
2024/03/14 05:23:30;;;;;;;101.10;19.77;;;;;;;5.78;100.00;97310.06;5027002;28;20412;-80
2024/03/14 05:25:57;;;;;;;102.22;20.10;;;;;;;5.78;100.00;97307.44;5030755;28;20391;-81
2024/03/14 05:28:24;;;;;;;118.13;20.80;;;;;;;5.75;100.00;97314.94;5033925;28;20399;-81
2024/03/14 05:30:52;;;;;;;87.63;18.08;;;;;;;5.76;100.00;97312.09;5026095;28;20408;-79
2024/03/14 05:33:18;;;;;;;79.30;15.83;;;;;;;5.74;100.00;97308.91;5022206;28;20956;-80
2024/03/14 05:35:46;;;;;;;109.25;20.15;;;;;;;5.74;100.00;97311.53;5008013;28;20886;-80
2024/03/14 05:38:13;;;;;;;113.38;21.20;;;;;;;5.73;100.00;97307.28;5011371;28;20399;-78
2024/03/14 05:40:39;;;;;;;130.60;22.10;;;;;;;5.64;100.00;97298.09;5014290;28;20890;-80
2024/03/14 05:43:05;;;;;;;124.95;22.92;;;;;;;5.64;100.00;97299.97;5018009;28;20434;-77
2024/03/14 05:45:34;;;;;;;125.75;22.38;;;;;;;5.62;100.00;97302.00;5010088;28;20404;-80
2024/03/14 05:48:05;;;;;;;120.72;22.33;;;;;;;5.67;100.00;97291.63;5033526;28;20764;-80
2024/03/14 05:50:31;;;;;;;133.02;22.05;;;;;;;5.65;100.00;97297.09;5015115;28;20401;-80
2024/03/14 05:52:57;;;;;;;131.40;21.95;;;;;;;5.65;100.00;97302.34;5011137;28;20438;-80
2024/03/14 05:55:23;;;;;;;148.50;23.90;;;;;;;5.63;100.00;97298.34;5019971;28;20448;-82
2024/03/14 05:57:50;;;;;;;148.20;25.58;;;;;;;5.63;100.00;97304.41;5029726;28;20424;-80
2024/03/14 06:00:20;;;;;;;154.15;24.38;;;;;;;5.67;100.00;97304.75;5015470;28;20437;-78
2024/03/14 06:02:47;;;;;;;154.65;25.15;;;;;;;5.62;100.00;97304.63;5020078;28;20395;-80
2024/03/14 06:05:18;;;;;;;142.48;22.60;;;;;;;5.66;100.00;97308.41;5011856;28;20418;-80
2024/03/14 06:07:45;;;;;;;157.95;24.77;;;;;;;5.71;100.00;97316.44;4997988;28;20411;-80
2024/03/14 06:10:14;;;;;;;164.60;25.27;;;;;;;5.70;100.00;97318.25;5011016;28;20436;-80
2024/03/14 06:12:45;;;;;;;160.43;25.85;;;;;;;5.72;100.00;97318.81;5012159;28;20898;-80
2024/03/14 06:15:14;;;;;;;139.20;22.73;;;;;;;5.76;100.00;97311.31;5008373;28;20429;-80
2024/03/14 06:17:42;;;;;;;154.18;24.17;;;;;;;5.78;100.00;97315.31;5008090;28;20428;-80
2024/03/14 06:20:12;;;;;;;193.48;27.67;;;;;;;5.78;100.00;97317.94;5018045;28;20416;-80
2024/03/14 06:22:44;;;;;;;190.85;26.50;;;;;;;5.79;100.00;97311.66;5008104;28;20853;-80
2024/03/14 06:25:11;;;;;;;191.65;28.88;;;;;;;5.81;100.00;97308.81;5022064;28;20396;-80
2024/03/14 06:27:39;;;;;;;219.98;29.70;;;;;;;5.82;100.00;97307.78;5022341;28;20430;-79
2024/03/14 06:30:09;;;;;;;205.77;28.67;;;;;;;5.81;100.00;97304.34;5032418;28;20399;-80
2024/03/14 06:32:36;;;;;;;178.65;28.83;;;;;;;5.85;100.00;97299.47;5024026;28;20516;-80
2024/03/14 06:35:03;;;;;;;210.48;31.10;;;;;;;5.88;100.00;97298.22;5032822;28;20399;-80
2024/03/14 06:37:32;;;;;;;194.48;28.40;;;;;;;5.93;100.00;97296.56;5016978;28;20425;-79
2024/03/14 06:40:00;;;;;;;198.13;27.13;;;;;;;6.00;100.00;97299.09;4984573;28;20500;-79
2024/03/14 06:42:32;;;;;;;202.18;28.38;;;;;;;6.01;100.00;97298.88;5008788;28;20411;-79
2024/03/14 06:45:22;;;;;;;140.95;22.33;;;;;;;6.06;100.00;97304.25;4997736;28;20419;-80
2024/03/14 06:48:21;;;;;;;214.05;29.55;;;;;;;6.07;100.00;97297.16;5022308;28;20906;-79
2024/03/14 06:51:15;;;;;;;207.52;29.05;;;;;;;6.08;100.00;97299.59;5024025;28;20475;-79
2024/03/14 06:53:41;;;;;;;194.73;29.08;;;;;;;6.12;100.00;97302.53;4985633;28;20475;-80
2024/03/14 06:56:08;;;;;;;200.80;27.40;;;;;;;6.18;100.00;97309.53;5024283;28;20448;-83
2024/03/14 06:58:35;;;;;;;139.45;21.90;;;;;;;6.26;100.00;97306.56;5013384;28;20401;-79
2024/03/14 07:01:01;;;;;;;98.10;15.80;;;;;;;6.34;100.00;97313.34;4996560;28;20488;-80
2024/03/14 07:03:29;;;;;;;79.88;13.32;;;;;;;6.42;100.00;97310.38;5020930;28;20430;-80
2024/03/14 07:05:57;;;;;;;59.17;10.18;;;;;;;6.50;100.00;97317.94;5021285;28;20395;-81
2024/03/14 07:08:26;;;;;;;43.97;8.40;;;;;;;6.59;100.00;97312.13;5023372;28;20403;-82
2024/03/14 07:10:52;;;;;;;32.35;7.03;;;;;;;6.70;100.00;97317.63;5025515;28;20415;-80
2024/03/14 07:13:19;;;;;;;39.17;7.63;;;;;;;6.80;100.00;97321.28;5019945;28;20490;-80
2024/03/14 07:15:53;;;;;;;70.00;11.93;;;;;;;6.88;100.00;97317.53;5003419;28;20421;-80
2024/03/14 07:18:34;;;;;;;134.25;22.88;;;;;;;6.87;100.00;97324.59;5007839;28;20418;-79
2024/03/14 07:21:24;;;;;;;86.03;16.45;;;;;;;6.93;100.00;97328.16;5015874;28;20421;-81
2024/03/14 07:24:06;;;;;;;77.78;15.75;;;;;;;7.01;100.00;97322.53;4997536;28;20922;-81
2024/03/14 07:27:06;;;;;;;55.03;11.02;;;;;;;7.11;100.00;97320.16;5022999;28;20411;-81
2024/03/14 07:30:36;;;;;;;107.55;20.67;;;;;;;7.12;100.00;97321.75;5019474;28;20422;-81
2024/03/14 07:33:11;;;;;;;96.90;19.23;;;;;;;7.08;100.00;97320.59;5024972;28;20931;-81
2024/03/14 07:35:44;;;;;;;100.05;20.48;;;;;;;7.04;100.00;97316.84;4998326;28;20443;-79
2024/03/14 07:38:40;;;;;;;109.27;19.87;;;;;;;6.94;100.00;97311.34;5024879;28;20445;-81
2024/03/14 07:41:17;;;;;;;95.45;19.80;;;;;;;6.95;100.00;97310.31;5013214;28;20506;-81
2024/03/14 07:43:55;;;;;;;102.70;21.08;;;;;;;6.97;100.00;97316.97;4999083;28;20424;-78
2024/03/14 07:47:19;;;;;;;113.43;20.58;;;;;;;7.10;100.00;97317.75;5016605;28;20500;-80
2024/03/14 07:50:00;;;;;;;82.25;17.67;;;;;;;7.20;100.00;97312.69;5028687;28;20487;-80
2024/03/14 07:52:44;;;;;;;82.78;18.00;;;;;;;7.32;100.00;97313.47;4997491;28;20493;-80
2024/03/14 07:55:28;;;;;;;87.87;18.17;;;;;;;7.35;100.00;97311.19;5000776;28;20850;-81
2024/03/14 07:58:21;;;;;;;74.97;17.27;;;;;;;7.35;100.00;97313.81;5004000;28;20435;-81
2024/03/14 08:01:17;;;;;;;77.18;17.65;;;;;;;7.36;100.00;97306.72;5016346;28;20407;-81
2024/03/14 08:04:04;;;;;;;64.65;16.45;;;;;;;7.43;100.00;97312.66;5022934;28;20413;-81
2024/03/14 08:06:57;;;;;;;50.63;14.48;;;;;;;7.60;100.00;97305.63;5028742;28;20942;-80
2024/03/14 08:09:42;;;;;;;55.92;15.50;;;;;;;7.87;100.00;97311.16;5035481;28;20701;-80
2024/03/14 08:12:35;;;;;;;55.97;14.40;;;;;;;7.92;100.00;97313.06;5028020;28;20420;-81
2024/03/14 08:15:52;;;;;;;40.55;12.52;;;;;;;8.02;100.00;97313.25;5020859;28;20480;-79
2024/03/14 08:18:11;;;;;;;36.75;12.40;;;;;;;8.16;100.00;97304.03;5008605;28;20468;-80
2024/03/14 08:20:43;;;;;;;41.75;12.10;;;;;;;8.16;100.00;97315.38;4999854;28;20433;-79
2024/03/14 08:23:27;;;;;;;29.67;9.87;;;;;;;8.34;100.00;97313.59;5000512;28;20437;-81
2024/03/14 08:25:54;;;;;;;29.48;10.15;;;;;;;8.32;100.00;97313.03;5007715;28;20427;-79
2024/03/14 08:28:22;;;;;;;33.58;10.93;;;;;;;8.33;100.00;97314.63;5004237;28;20475;-80
2024/03/14 08:30:49;;;;;;;24.58;10.20;;;;;;;8.36;100.00;97316.78;5023373;28;20416;-80
2024/03/14 08:33:15;;;;;;;23.35;9.48;;;;;;;8.40;100.00;97302.09;5030655;28;20800;-80
2024/03/14 08:35:42;;;;;;;17.95;8.00;;;;;;;8.40;100.00;97299.47;5032072;28;20429;-82
2024/03/14 08:38:09;;;;;;;17.95;8.10;;;;;;;8.41;100.00;97306.34;5029927;28;20417;-81
2024/03/14 08:40:35;;;;;;;16.30;6.90;;;;;;;8.57;100.00;97312.66;5028949;28;20482;-81
2024/03/14 08:43:01;;;;;;;15.20;6.80;;;;;;;8.76;100.00;97311.38;5020105;28;20512;-79
2024/03/14 08:45:28;;;;;;;11.70;6.80;;;;;;;8.85;100.00;97308.09;5018581;28;20396;-80
2024/03/14 08:47:54;;;;;;;8.93;4.93;;;;;;;9.13;100.00;97304.50;5034500;28;20971;-81
2024/03/14 08:50:22;;;;;;;11.87;6.60;;;;;;;9.35;100.00;97306.38;5044072;28;20407;-82
2024/03/14 08:52:49;;;;;;;11.52;7.28;;;;;;;9.37;100.00;97309.59;5032686;28;20422;-81
2024/03/14 08:55:25;;;;;;;10.15;5.90;;;;;;;9.69;100.00;97308.69;5035328;28;20422;-80
2024/03/14 08:57:51;;;;;;;11.13;6.30;;;;;;;9.84;100.00;97304.59;5032124;28;20423;-80
2024/03/14 09:00:20;;;;;;;7.55;4.95;;;;;;;10.18;100.00;97308.69;5027814;28;20408;-82
2024/03/14 09:02:46;;;;;;;7.35;4.60;;;;;;;10.51;100.00;97315.59;5024468;28;20393;-81
2024/03/14 09:05:14;;;;;;;5.30;3.35;;;;;;;10.94;100.00;97311.94;5025972;28;20738;-80
2024/03/14 09:07:40;;;;;;;6.80;3.20;;;;;;;11.38;100.00;97314.31;5013763;28;20480;-80
2024/03/14 09:10:16;;;;;;;5.60;3.33;;;;;;;11.53;100.00;97307.25;5026156;28;20401;-81
2024/03/14 09:12:43;;;;;;;5.23;3.27;;;;;;;11.75;100.00;97312.41;5024580;28;20447;-81
2024/03/14 09:15:09;;;;;;;4.93;3.20;;;;;;;11.71;100.00;97313.16;5019955;28;20757;-81
2024/03/14 09:17:36;;;;;;;6.97;4.60;;;;;;;11.73;100.00;97314.47;5019683;28;20419;-80
2024/03/14 09:20:09;;;;;;;5.67;3.27;;;;;;;11.96;100.00;97314.06;5030853;28;20473;-82
2024/03/14 09:22:39;;;;;;;5.03;3.70;;;;;;;12.16;100.00;97317.81;5025177;28;20403;-81
2024/03/14 09:25:07;;;;;;;4.68;3.00;;;;;;;12.56;100.00;97303.78;5026425;28;20443;-82
2024/03/14 09:27:33;;;;;;;5.18;3.70;;;;;;;12.49;100.00;97312.00;5015220;28;20407;-80
2024/03/14 09:30:00;;;;;;;6.50;3.30;;;;;;;12.87;100.00;97300.06;5018800;28;20416;-80
2024/03/14 09:32:29;;;;;;;3.15;2.45;;;;;;;13.17;100.00;97301.91;5018215;28;20405;-78
2024/03/14 09:34:56;;;;;;;3.17;2.60;;;;;;;13.34;100.00;97305.06;5014607;28;20400;-81
2024/03/14 09:37:25;;;;;;;4.82;3.05;;;;;;;13.39;100.00;97306.91;5026600;28;20522;-82
2024/03/14 09:39:51;;;;;;;5.72;3.78;;;;;;;13.49;100.00;97302.34;5022692;28;20429;-82
2024/03/14 09:42:20;;;;;;;5.50;4.00;;;;;;;13.24;100.00;97291.78;5022107;28;20406;-79
2024/03/14 09:44:47;;;;;;;7.37;4.20;;;;;;;12.88;100.00;97280.41;5018886;28;20405;-81
2024/03/14 09:47:15;;;;;;;6.68;3.80;;;;;;;12.85;100.00;97285.47;5019041;28;20412;-81
2024/03/14 09:49:43;;;;;;;5.38;3.20;;;;;;;13.03;100.00;97296.31;5017569;28;20399;-80
2024/03/14 09:52:09;;;;;;;3.67;2.47;;;;;;;12.98;100.00;97293.69;5019125;28;20405;-81
2024/03/14 09:54:36;;;;;;;4.28;2.92;;;;;;;12.67;100.00;97282.28;5024153;28;20407;-81
2024/03/14 09:57:02;;;;;;;3.67;2.70;;;;;;;12.63;100.00;97285.75;5026023;28;20419;-80
2024/03/14 09:59:28;;;;;;;3.80;2.77;;;;;;;12.78;100.00;97291.84;5026033;28;20481;-82
2024/03/14 10:01:55;;;;;;;5.03;2.63;;;;;;;12.71;100.00;97290.50;5022259;28;20414;-81
2024/03/14 10:04:21;;;;;;;4.75;3.10;;;;;;;12.82;100.00;97288.66;5014469;28;20407;-79
2024/03/14 10:06:48;;;;;;;3.38;2.60;;;;;;;13.05;100.00;97288.88;5010741;28;20408;-80
2024/03/14 10:09:22;;;;;;;4.35;2.60;;;;;;;13.09;100.00;97286.47;5024802;28;20474;-81
2024/03/14 10:11:50;;;;;;;4.40;2.85;;;;;;;13.14;100.00;97270.56;5016553;28;20409;-81
2024/03/14 10:14:20;;;;;;;3.83;2.40;;;;;;;13.42;100.00;97274.47;5028188;28;20401;-81
2024/03/14 10:16:46;;;;;;;3.00;2.30;;;;;;;13.63;100.00;97265.31;5024460;28;20424;-82
2024/03/14 10:19:13;;;;;;;2.17;1.60;;;;;;;14.08;100.00;97282.13;5018228;28;20399;-81
2024/03/14 10:21:39;;;;;;;2.72;2.15;;;;;;;14.38;100.00;97268.63;5030630;28;20488;-82
2024/03/14 10:24:08;;;;;;;2.33;1.65;;;;;;;14.67;100.00;97258.00;5037830;28;20475;-81
2024/03/14 10:26:35;;;;;;;3.20;1.77;;;;;;;15.02;100.00;97260.34;5026365;28;20471;-79
2024/03/14 10:29:01;;;;;;;2.20;1.83;;;;;;;15.50;100.00;97247.00;5032261;28;20399;-81
2024/03/14 10:31:29;;;;;;;2.13;1.50;;;;;;;16.15;100.00;97249.91;5031649;28;20402;-80
2024/03/14 10:33:55;;;;;;;2.47;1.20;;;;;;;16.93;100.00;97241.94;5029469;28;20484;-81
2024/03/14 10:36:22;;;;;;;2.17;1.53;;;;;;;17.28;100.00;97229.00;5035615;28;20396;-81
2024/03/14 10:38:49;;;;;;;5.72;1.20;;;;;;;17.83;100.00;97231.63;5033096;28;20594;-81
2024/03/14 10:41:17;;;;;;;0.88;0.80;;;;;;;18.66;100.00;97232.94;5036953;28;20398;-81
2024/03/14 10:43:44;;;;;;;1.65;0.80;;;;;;;19.63;100.00;97218.50;5034174;28;20407;-81
2024/03/14 10:46:13;;;;;;;1.42;0.90;;;;;;;20.16;100.00;97210.19;5016764;28;20407;-81
2024/03/14 10:48:39;;;;;;;2.78;1.02;;;;;;;19.94;100.00;97211.13;5033678;28;20399;-81
2024/03/14 10:51:06;;;;;;;0.70;0.70;;;;;;;20.04;100.00;97210.84;5014953;28;20411;-81
2024/03/14 10:53:33;;;;;;;1.80;0.82;;;;;;;19.60;100.00;97206.53;5029051;28;20558;-80
2024/03/14 10:55:59;;;;;;;0.80;0.63;;;;;;;19.61;100.00;97210.00;5032712;28;20435;-80
2024/03/14 10:58:26;;;;;;;0.90;0.80;;;;;;;19.54;100.00;97205.09;5031087;28;20427;-80
2024/03/14 11:00:53;;;;;;;1.10;0.93;;;;;;;19.35;100.00;97201.84;5030995;28;20446;-81
2024/03/14 11:03:20;;;;;;;1.07;0.90;;;;;;;19.05;100.00;97200.78;5032201;28;20399;-81
2024/03/14 11:05:48;;;;;;;1.40;0.95;;;;;;;18.93;100.00;97197.91;5031467;28;20395;-81
2024/03/14 11:08:16;;;;;;;0.80;0.80;;;;;;;18.81;100.00;97201.16;5029639;28;20487;-81
2024/03/14 11:10:42;;;;;;;2.17;0.75;;;;;;;18.84;100.00;97197.09;5026307;28;20493;-80
2024/03/14 11:13:12;;;;;;;1.63;0.80;;;;;;;18.74;100.00;97190.09;5012793;28;20384;-80
2024/03/14 11:15:39;;;;;;;0.75;0.75;;;;;;;18.57;100.00;97199.94;5022413;28;20453;-81
2024/03/14 11:18:06;;;;;;;0.80;0.70;;;;;;;18.45;100.00;97190.53;5035100;28;20423;-80
2024/03/14 11:20:33;;;;;;;1.08;0.80;;;;;;;18.28;100.00;97193.09;5019152;28;20479;-80
2024/03/14 11:22:59;;;;;;;0.73;0.68;;;;;;;18.29;100.00;97191.19;5030358;28;20403;-79
2024/03/14 11:25:25;;;;;;;1.20;0.80;;;;;;;18.63;100.00;97185.31;5026904;28;20407;-79
2024/03/14 11:27:52;;;;;;;1.80;0.90;;;;;;;18.52;100.00;97174.81;5029035;28;20404;-80
2024/03/14 11:30:21;;;;;;;1.42;0.80;;;;;;;18.80;100.00;97174.66;5030565;28;20411;-81
2024/03/14 11:32:49;;;;;;;1.33;1.00;;;;;;;18.83;100.00;97174.03;5030749;28;20399;-79